createdAt,value
2018-07-25T00:01:21.863Z,25.20
2018-07-25T00:03:49.588Z,25.10
2018-07-25T00:06:17.336Z,25.10
2018-07-25T00:08:45.075Z,25.00
2018-07-25T00:13:40.395Z,25.00
2018-07-25T00:18:35.725Z,24.90
2018-07-25T00:21:03.488Z,24.90
2018-07-25T00:25:58.785Z,25.00
2018-07-25T00:28:26.499Z,25.10
2018-07-25T00:30:54.236Z,24.80
2018-07-25T00:35:49.541Z,24.90
2018-07-25T00:38:17.223Z,25.00
2018-07-25T00:43:12.506Z,24.70
2018-07-25T00:45:40.190Z,24.10
2018-07-25T00:48:07.976Z,24.40
2018-07-25T00:53:03.331Z,24.80
2018-07-25T00:55:31.074Z,24.40
2018-07-25T00:57:58.727Z,24.50
2018-07-25T01:02:54.019Z,24.40
2018-07-25T01:05:21.719Z,24.20
2018-07-25T01:10:16.966Z,24.30
2018-07-25T01:12:44.699Z,24.30
2018-07-25T01:15:12.407Z,24.30
2018-07-25T01:17:40.122Z,23.60
2018-07-25T01:25:03.434Z,24.10
2018-07-25T01:29:58.660Z,23.60
2018-07-25T01:32:26.375Z,23.40
2018-07-25T01:34:54.067Z,23.50
2018-07-25T01:39:49.340Z,23.40
2018-07-25T01:42:17.257Z,23.50
2018-07-25T01:44:44.942Z,23.40
2018-07-25T01:47:12.650Z,23.30
2018-07-25T01:49:40.379Z,23.40
2018-07-25T01:52:08.138Z,23.20
2018-07-25T01:54:35.844Z,23.40
2018-07-25T01:57:03.783Z,23.20
2018-07-25T01:59:31.466Z,23.30
2018-07-25T02:01:59.683Z,23.30
2018-07-25T02:06:55.363Z,23.10
2018-07-25T02:09:23.071Z,23.20
2018-07-25T02:11:50.804Z,22.90
2018-07-25T02:14:18.525Z,23.10
2018-07-25T02:16:46.252Z,23.00
2018-07-25T02:19:13.935Z,22.80
2018-07-25T02:24:09.259Z,22.90
2018-07-25T02:26:36.966Z,23.00
2018-07-25T02:29:04.749Z,22.90
2018-07-25T02:31:32.476Z,22.80
2018-07-25T02:34:05.726Z,23.00
2018-07-25T02:36:33.418Z,23.30
2018-07-25T02:39:01.116Z,23.00
2018-07-25T02:41:28.800Z,22.70
2018-07-25T02:43:56.516Z,22.90
2018-07-25T02:48:51.770Z,22.70
2018-07-25T02:51:19.479Z,22.70
2018-07-25T02:53:47.168Z,22.70
2018-07-25T02:56:14.892Z,22.70
2018-07-25T02:58:42.582Z,22.60
2018-07-25T03:01:10.267Z,22.60
2018-07-25T03:03:37.956Z,22.80
2018-07-25T03:06:05.682Z,22.80
2018-07-25T03:08:33.346Z,22.70
2018-07-25T03:11:01.050Z,22.60
2018-07-25T03:13:28.771Z,22.60
2018-07-25T03:16:07.965Z,22.80
2018-07-25T03:18:35.811Z,22.60
2018-07-25T03:21:03.715Z,22.50
2018-07-25T03:26:00.392Z,22.60
2018-07-25T03:28:28.649Z,22.20
2018-07-25T03:33:25.016Z,22.20
2018-07-25T03:35:53.273Z,22.10
2018-07-25T03:40:48.537Z,22.00
2018-07-25T03:43:16.484Z,22.10
2018-07-25T03:45:44.641Z,22.20
2018-07-25T03:55:35.283Z,22.40
2018-07-25T03:58:03.096Z,22.60
2018-07-25T04:00:30.850Z,22.30
2018-07-25T04:02:58.579Z,22.40
2018-07-25T04:05:26.284Z,22.40
2018-07-25T04:07:53.982Z,22.40
2018-07-25T04:10:21.682Z,22.20
2018-07-25T04:12:49.535Z,22.30
2018-07-25T04:25:10.631Z,22.30
2018-07-25T04:27:40.639Z,22.10
2018-07-25T04:30:09.851Z,22.20
2018-07-25T04:32:38.005Z,22.00
2018-07-25T04:37:33.367Z,22.40
2018-07-25T04:40:01.075Z,22.10
2018-07-25T04:42:28.802Z,22.40
2018-07-25T04:44:56.615Z,22.60
2018-07-25T04:47:24.351Z,22.00
2018-07-25T04:49:52.051Z,22.50
2018-07-25T04:52:19.768Z,22.30
2018-07-25T04:54:47.479Z,22.50
2018-07-25T04:59:43.036Z,22.50
2018-07-25T05:02:10.971Z,22.60
2018-07-25T05:04:38.707Z,22.40
2018-07-25T05:07:06.492Z,22.50
2018-07-25T05:09:34.146Z,22.50
2018-07-25T05:12:02.435Z,22.70
2018-07-25T05:14:30.151Z,22.70
2018-07-25T05:16:57.864Z,22.60
2018-07-25T05:19:25.619Z,22.80
2018-07-25T05:21:53.622Z,22.70
2018-07-25T05:26:48.923Z,22.90
2018-07-25T05:29:16.629Z,22.60
2018-07-25T05:31:44.370Z,22.80
2018-07-25T05:36:39.702Z,23.10
2018-07-25T05:39:10.109Z,22.90
2018-07-25T05:44:05.667Z,23.30
2018-07-25T05:46:33.337Z,23.20
2018-07-25T05:49:01.039Z,22.90
2018-07-25T05:51:28.743Z,23.50
2018-07-25T05:53:56.451Z,23.40
2018-07-25T05:56:24.186Z,23.30
2018-07-25T05:58:51.889Z,23.30
2018-07-25T06:01:19.643Z,23.40
2018-07-25T06:03:47.372Z,23.50
2018-07-25T06:06:15.144Z,23.50
2018-07-25T06:08:42.831Z,23.20
2018-07-25T06:11:10.579Z,23.30
2018-07-25T06:13:38.284Z,23.50
2018-07-25T06:16:06.353Z,24.00
2018-07-25T06:18:34.156Z,23.90
2018-07-25T06:21:01.863Z,24.20
2018-07-25T06:23:29.595Z,24.20
2018-07-25T06:25:57.350Z,24.20
2018-07-25T06:28:25.116Z,24.30
2018-07-25T06:30:52.875Z,24.10
2018-07-25T06:33:20.603Z,24.20
2018-07-25T06:35:48.313Z,24.20
2018-07-25T06:38:16.035Z,24.30
2018-07-25T06:40:43.739Z,24.20
2018-07-25T06:43:11.594Z,24.40
2018-07-25T06:45:39.323Z,24.70
2018-07-25T06:48:07.071Z,24.90
2018-07-25T06:50:34.850Z,24.50
2018-07-25T06:53:02.579Z,24.70
2018-07-25T06:55:30.281Z,25.00
2018-07-25T06:57:58.087Z,24.60
2018-07-25T07:00:25.836Z,24.90
2018-07-25T07:02:53.576Z,25.00
2018-07-25T07:05:21.341Z,25.00
2018-07-25T07:10:16.693Z,25.10
2018-07-25T07:12:44.422Z,25.40
2018-07-25T07:15:12.186Z,25.30
2018-07-25T07:17:40.477Z,25.60
2018-07-25T07:22:35.848Z,26.00
2018-07-25T07:25:03.967Z,26.00
2018-07-25T07:27:31.670Z,26.50
2018-07-25T07:29:59.379Z,26.50
2018-07-25T07:32:27.132Z,26.50
2018-07-25T07:34:54.835Z,27.10
2018-07-25T07:37:22.619Z,27.10
2018-07-25T07:39:50.258Z,27.20
2018-07-25T07:42:18.032Z,27.20
2018-07-25T07:49:41.127Z,27.90
2018-07-25T07:52:08.854Z,27.50
2018-07-25T07:54:36.619Z,27.60
2018-07-25T07:57:04.458Z,28.00
2018-07-25T07:59:32.223Z,27.80
2018-07-25T08:01:59.883Z,28.00
2018-07-25T08:04:27.580Z,28.30
2018-07-25T08:06:55.299Z,28.50
2018-07-25T08:09:22.994Z,28.70
2018-07-25T08:11:50.719Z,28.60
2018-07-25T08:14:18.421Z,28.80
2018-07-25T08:16:46.122Z,28.60
2018-07-25T08:19:13.855Z,29.30
2018-07-25T08:21:41.629Z,30.00
2018-07-25T08:26:36.979Z,30.90
2018-07-25T08:29:04.695Z,30.80
2018-07-25T08:31:32.446Z,31.60
2018-07-25T08:34:00.134Z,31.50
2018-07-25T08:36:27.889Z,30.80
2018-07-25T08:38:55.607Z,31.10
2018-07-25T08:46:18.454Z,35.10
2018-07-25T08:48:46.175Z,36.90
2018-07-25T08:51:13.869Z,38.10
2018-07-25T08:53:41.577Z,38.20
2018-07-25T08:56:09.314Z,37.80
2018-07-25T08:58:37.035Z,38.90
2018-07-25T09:01:04.834Z,39.60
2018-07-25T09:03:32.569Z,39.30
2018-07-25T09:06:00.296Z,38.90
2018-07-25T09:08:28.071Z,38.40
2018-07-25T09:10:55.799Z,39.10
2018-07-25T09:13:23.541Z,39.70
2018-07-25T09:15:51.286Z,39.10
2018-07-25T09:18:18.995Z,39.40
2018-07-25T09:20:46.754Z,38.90
2018-07-25T09:23:14.494Z,39.10
2018-07-25T09:25:42.200Z,39.30
2018-07-25T09:30:37.566Z,38.30
2018-07-25T09:33:05.383Z,36.90
2018-07-25T09:40:28.253Z,36.30
2018-07-25T09:42:55.951Z,38.20
2018-07-25T09:45:23.678Z,38.60
2018-07-25T09:47:51.387Z,38.80
2018-07-25T09:50:19.122Z,39.40
2018-07-25T09:52:46.820Z,39.60
2018-07-25T09:55:14.552Z,39.70
2018-07-25T09:57:42.298Z,38.90
2018-07-25T10:02:40.056Z,39.00
2018-07-25T10:05:08.691Z,39.40
2018-07-25T10:07:36.524Z,40.30
2018-07-25T10:10:05.263Z,40.70
2018-07-25T10:12:33.007Z,39.60
2018-07-25T10:15:00.811Z,41.20
2018-07-25T10:17:28.559Z,41.70
2018-07-25T10:19:56.384Z,41.50
2018-07-25T10:22:24.136Z,39.90
2018-07-25T10:24:51.882Z,40.70
2018-07-25T10:27:19.722Z,41.40
2018-07-25T10:29:47.371Z,41.30
2018-07-25T10:32:15.161Z,41.70
2018-07-25T10:34:42.883Z,42.50
2018-07-25T10:39:38.291Z,42.50
2018-07-25T10:42:06.031Z,42.90
2018-07-25T10:44:33.776Z,43.70
2018-07-25T10:47:01.514Z,44.40
2018-07-25T10:49:29.299Z,44.90
2018-07-25T10:51:57.109Z,44.00
2018-07-25T10:54:24.807Z,44.70
2018-07-25T10:56:52.590Z,44.10
2018-07-25T10:59:20.372Z,44.30
2018-07-25T11:01:48.160Z,44.70
2018-07-25T11:04:15.871Z,44.80
2018-07-25T11:06:43.574Z,45.70
2018-07-25T11:09:11.337Z,44.90
2018-07-25T11:11:39.180Z,45.10
2018-07-25T11:14:06.911Z,44.90
2018-07-25T11:19:02.356Z,44.50
2018-07-25T11:21:30.119Z,45.30
2018-07-25T11:23:57.844Z,45.90
2018-07-25T11:28:53.260Z,45.50
2018-07-25T11:31:21.048Z,44.80
2018-07-25T11:33:48.763Z,45.70
2018-07-25T11:36:16.540Z,45.50
2018-07-25T11:38:44.251Z,45.90
2018-07-25T11:43:39.588Z,47.40
2018-07-25T11:46:07.403Z,46.60
2018-07-25T11:48:35.095Z,46.70
2018-07-25T11:53:30.467Z,45.70
2018-07-25T11:55:58.184Z,45.30
2018-07-25T11:58:26.292Z,45.50
2018-07-25T12:00:54.153Z,45.80
2018-07-25T12:03:21.980Z,45.40
2018-07-25T12:10:45.016Z,44.50
2018-07-25T12:13:12.780Z,43.10
2018-07-25T12:15:40.779Z,41.40
2018-07-25T12:18:08.534Z,40.90
2018-07-25T12:20:36.300Z,41.60
2018-07-25T12:23:04.067Z,41.50
2018-07-25T12:25:31.833Z,40.30
2018-07-25T12:27:59.564Z,39.50
2018-07-25T12:30:27.306Z,39.10
2018-07-25T12:32:55.107Z,39.30
2018-07-25T12:35:22.843Z,40.00
2018-07-25T12:37:50.586Z,41.00
2018-07-25T12:42:45.972Z,41.40
2018-07-25T12:45:14.331Z,41.40
2018-07-25T12:47:42.087Z,41.30
2018-07-25T12:50:09.912Z,40.70
2018-07-25T12:55:05.446Z,40.00
2018-07-25T12:57:33.235Z,38.70
2018-07-25T13:00:00.996Z,38.10
2018-07-25T13:02:28.727Z,38.30
2018-07-25T13:04:56.474Z,39.00
2018-07-25T13:07:24.234Z,39.60
2018-07-25T13:09:52.059Z,39.60
2018-07-25T13:12:19.867Z,40.00
2018-07-25T13:14:47.723Z,39.90
2018-07-25T13:17:15.472Z,39.80
2018-07-25T13:19:43.279Z,39.90
2018-07-25T13:22:11.063Z,39.90
2018-07-25T13:29:34.152Z,39.90
2018-07-25T13:34:30.563Z,39.70
2018-07-25T13:36:58.430Z,39.20
2018-07-25T13:39:26.133Z,38.30
2018-07-25T13:41:53.945Z,37.00
2018-07-25T13:44:21.726Z,36.70
2018-07-25T13:46:49.531Z,36.10
2018-07-25T13:59:07.995Z,38.40
2018-07-25T14:01:35.757Z,38.80
2018-07-25T14:04:03.616Z,39.20
2018-07-25T14:06:31.399Z,38.70
2018-07-25T14:08:59.321Z,38.70
2018-07-25T14:11:27.152Z,38.90
2018-07-25T14:13:54.881Z,38.80
2018-07-25T14:16:22.667Z,38.70
2018-07-25T14:18:50.436Z,38.20
2018-07-25T14:21:18.274Z,37.50
2018-07-25T14:23:46.162Z,37.00
2018-07-25T14:28:41.621Z,36.70
2018-07-25T14:31:09.393Z,36.40
2018-07-25T14:36:05.326Z,35.50
2018-07-25T14:38:33.063Z,35.70
2018-07-25T14:41:00.799Z,35.50
2018-07-25T14:43:28.524Z,35.90
2018-07-25T14:48:23.882Z,36.40
2018-07-25T14:50:51.663Z,36.10
2018-07-25T14:53:19.419Z,36.30
2018-07-25T14:55:47.136Z,36.30
2018-07-25T14:58:14.891Z,36.40
2018-07-25T15:00:42.643Z,36.40
2018-07-25T15:03:10.394Z,36.30
2018-07-25T15:05:38.092Z,36.30
2018-07-25T15:08:06.158Z,36.30
2018-07-25T15:10:33.919Z,36.10
2018-07-25T15:13:01.692Z,36.00
2018-07-25T15:15:29.461Z,36.10
2018-07-25T15:20:24.838Z,36.00
2018-07-25T15:22:52.605Z,36.00
2018-07-25T15:27:47.904Z,35.80
2018-07-25T15:30:15.667Z,35.80
2018-07-25T15:32:43.454Z,35.70
2018-07-25T15:35:11.167Z,35.40
2018-07-25T15:37:39.267Z,35.30
2018-07-25T15:40:07.675Z,35.20
2018-07-25T15:42:35.361Z,35.50
2018-07-25T15:45:03.229Z,35.80
2018-07-25T15:47:30.948Z,35.70
2018-07-25T15:49:58.688Z,35.70
2018-07-25T15:52:26.418Z,36.20
2018-07-25T15:54:54.147Z,36.50
2018-07-25T15:57:21.943Z,36.50
2018-07-25T15:59:49.709Z,36.20
2018-07-25T16:02:17.403Z,36.30
2018-07-25T16:07:12.787Z,36.20
2018-07-25T16:09:40.600Z,36.00
2018-07-25T16:12:08.380Z,36.00
2018-07-25T16:14:36.136Z,36.20
2018-07-25T16:19:31.483Z,35.90
2018-07-25T16:21:59.327Z,35.40
2018-07-25T16:24:27.141Z,35.90
2018-07-25T16:26:54.902Z,36.00
2018-07-25T16:29:22.747Z,35.90
2018-07-25T16:34:18.113Z,35.90
2018-07-25T16:36:45.819Z,36.10
2018-07-25T16:39:14.719Z,36.00
2018-07-25T16:41:42.493Z,35.80
2018-07-25T16:44:10.571Z,35.50
2018-07-25T16:46:38.324Z,35.40
2018-07-25T16:49:06.584Z,35.40
2018-07-25T16:51:34.780Z,35.10
2018-07-25T16:54:02.824Z,35.10
2018-07-25T16:58:58.159Z,34.70
2018-07-25T17:01:25.923Z,34.90
2018-07-25T17:03:53.657Z,34.50
2018-07-25T17:06:21.663Z,34.40
2018-07-25T17:08:49.419Z,34.30
2018-07-25T17:16:12.437Z,34.40
2018-07-25T17:18:40.151Z,34.20
2018-07-25T17:23:35.548Z,34.00
2018-07-25T17:26:03.264Z,34.20
2018-07-25T17:28:30.983Z,34.00
2018-07-25T17:30:58.678Z,33.90
2018-07-25T17:35:54.004Z,33.80
2018-07-25T17:38:21.704Z,33.60
2018-07-25T17:40:49.516Z,33.60
2018-07-25T17:43:17.267Z,33.60
2018-07-25T17:45:45.007Z,33.20
2018-07-25T17:48:12.735Z,33.30
2018-07-25T17:53:08.041Z,33.10
2018-07-25T17:58:03.547Z,33.00
2018-07-25T18:00:31.320Z,32.50
2018-07-25T18:02:59.048Z,32.80
2018-07-25T18:05:26.785Z,32.60
2018-07-25T18:07:54.507Z,32.70
2018-07-25T18:10:22.256Z,32.00
2018-07-25T18:12:53.719Z,32.20
2018-07-25T18:15:21.478Z,32.20
2018-07-25T18:17:49.167Z,32.10
2018-07-25T18:22:44.510Z,31.80
2018-07-25T18:25:12.268Z,31.60
2018-07-25T18:27:39.976Z,31.60
2018-07-25T18:30:07.695Z,31.50
2018-07-25T18:32:35.509Z,31.10
2018-07-25T18:35:03.527Z,31.40
2018-07-25T18:37:31.264Z,31.20
2018-07-25T18:39:58.954Z,31.30
2018-07-25T18:42:26.655Z,31.00
2018-07-25T18:44:54.428Z,30.90
2018-07-25T18:47:22.131Z,30.80
2018-07-25T18:49:49.979Z,30.50
2018-07-25T18:52:17.705Z,30.60
2018-07-25T18:54:45.380Z,30.50
2018-07-25T18:57:13.107Z,30.30
2018-07-25T18:59:40.791Z,30.30
2018-07-25T19:02:08.572Z,30.10
2018-07-25T19:04:36.234Z,30.10
2018-07-25T19:07:04.057Z,29.70
2018-07-25T19:09:31.707Z,29.80
2018-07-25T19:11:59.391Z,29.90
2018-07-25T19:15:34.679Z,29.50
2018-07-25T19:18:02.427Z,29.60
2018-07-25T19:20:30.150Z,29.30
2018-07-25T19:22:57.831Z,29.50
2018-07-25T19:25:25.531Z,29.20
2018-07-25T19:27:53.263Z,29.10
2018-07-25T19:30:20.975Z,29.40
2018-07-25T19:32:49.095Z,29.20
2018-07-25T19:35:16.783Z,29.10
2018-07-25T19:37:44.483Z,29.30
2018-07-25T19:40:12.176Z,29.10
2018-07-25T19:45:07.519Z,28.80
2018-07-25T19:47:35.240Z,29.20
2018-07-25T19:50:03.023Z,28.90
2018-07-25T19:52:30.785Z,28.80
2018-07-25T19:57:26.159Z,28.70
2018-07-25T19:59:53.887Z,28.80
2018-07-25T20:02:21.679Z,28.60
2018-07-25T20:04:49.387Z,28.70
2018-07-25T20:07:17.190Z,28.50
2018-07-25T20:09:44.969Z,28.20
2018-07-25T20:12:12.699Z,28.40
2018-07-25T20:14:46.150Z,28.30
2018-07-25T20:17:14.612Z,28.30
2018-07-25T20:19:42.340Z,28.30
2018-07-25T20:22:10.098Z,28.20
2018-07-25T20:24:37.802Z,28.00
2018-07-25T20:27:05.660Z,28.10
2018-07-25T20:29:33.405Z,28.00
2018-07-25T20:36:56.519Z,28.20
2018-07-25T20:39:24.251Z,27.80
2018-07-25T20:44:19.607Z,27.80
2018-07-25T20:46:47.410Z,27.30
2018-07-25T20:49:15.169Z,27.60
2018-07-25T20:51:42.931Z,27.30
2018-07-25T20:54:10.639Z,27.30
2018-07-25T20:59:06.299Z,27.30
2018-07-25T21:01:34.052Z,27.10
2018-07-25T21:04:01.821Z,27.30
2018-07-25T21:06:29.553Z,27.10
2018-07-25T21:08:57.284Z,27.00
2018-07-25T21:11:25.009Z,27.00
2018-07-25T21:13:52.767Z,26.60
2018-07-25T21:16:20.516Z,27.00
2018-07-25T21:18:48.250Z,26.80
2018-07-25T21:21:16.004Z,26.70
2018-07-25T21:23:43.709Z,27.10
2018-07-25T21:28:39.050Z,26.80
2018-07-25T21:31:06.859Z,26.90
2018-07-25T21:33:34.614Z,26.90
2018-07-25T21:36:02.316Z,27.00
2018-07-25T21:38:30.032Z,26.80
2018-07-25T21:40:57.807Z,27.00
2018-07-25T21:43:25.550Z,27.00
2018-07-25T21:45:53.344Z,26.80
2018-07-25T21:48:21.071Z,27.00
2018-07-25T21:50:49.112Z,26.60
2018-07-25T21:55:44.508Z,26.30
2018-07-25T21:58:12.245Z,26.30
2018-07-25T22:00:44.536Z,26.40
2018-07-25T22:03:12.298Z,26.30
2018-07-25T22:05:40.023Z,26.50
2018-07-25T22:10:35.779Z,26.70
2018-07-25T22:13:03.567Z,26.30
2018-07-25T22:15:32.546Z,26.20
2018-07-25T22:18:00.280Z,26.40
2018-07-25T22:20:28.047Z,26.20
2018-07-25T22:22:55.782Z,26.00
2018-07-25T22:25:23.514Z,26.20
2018-07-25T22:27:51.234Z,25.90
2018-07-25T22:30:19.039Z,25.60
2018-07-25T22:32:46.747Z,25.60
2018-07-25T22:35:14.459Z,25.80
2018-07-25T22:37:42.216Z,25.50
2018-07-25T22:40:09.933Z,25.90
2018-07-25T22:42:37.752Z,25.60
2018-07-25T22:45:05.536Z,25.50
2018-07-25T22:47:33.321Z,25.40
2018-07-25T22:50:01.047Z,25.80
2018-07-25T22:52:28.826Z,25.90
2018-07-25T22:54:56.623Z,25.40
2018-07-25T22:57:24.424Z,25.70
2018-07-25T22:59:52.144Z,25.50
2018-07-25T23:02:19.888Z,25.50
2018-07-25T23:04:47.576Z,25.30
2018-07-25T23:07:15.335Z,25.30
2018-07-25T23:09:43.330Z,25.30
2018-07-25T23:12:11.135Z,25.00
2018-07-25T23:14:38.908Z,25.30
2018-07-25T23:17:06.607Z,25.10
2018-07-25T23:19:34.383Z,25.10
2018-07-25T23:24:29.770Z,25.00
2018-07-25T23:26:57.479Z,25.10
2018-07-25T23:31:52.824Z,25.00
2018-07-25T23:34:20.551Z,25.00
2018-07-25T23:36:48.263Z,25.20
2018-07-25T23:39:15.968Z,25.00
2018-07-25T23:41:43.676Z,24.90
2018-07-25T23:44:11.423Z,25.10
2018-07-25T23:49:06.706Z,25.20
2018-07-25T23:51:34.603Z,24.80
2018-07-25T23:54:02.384Z,24.70
2018-07-25T23:58:57.811Z,24.50
